AirNav   Air Wisconsin Up To $57,000 Bonus
 
 913 users online  

85TX Rutherford Ranch Airport
Buda, Texas, USA

GOING TO BUDA?


FAA INFORMATION EFFECTIVE 08 OCTOBER 2020

Location

FAA Identifier: 85TX
Lat/Long: 30-04-39.7630N 097-57-56.0260W
30-04.662717N 097-57.933767W
30.0777119,-97.9655628
(estimated)
Elevation: 983 ft. / 299.6 m (surveyed)
Variation: 07E (1985)
From city: 6 miles W of BUDA, TX
Time zone: UTC -5 (UTC -6 during Standard Time)
Zip code: 78610

Airport Operations

Airport use: Private use. Permission required prior to landing
Activation date: 05/1951
Control tower: no
ARTCC: HOUSTON CENTER
FSS: SAN ANGELO FLIGHT SERVICE STATION
Attendance: UNATNDD
Wind indicator: yes
Segmented circle: no

Airport Communications

WX AWOS-3PT at HYI (12 nm SE): PHONE 512-353-8005
WX ASOS at AUS (17 nm NE): PHONE 512-369-7881

Nearby radio navigation aids

VOR radial/distance  VOR name  Freq  Var
CWKr225/28.9CENTEX VORTAC112.8006E
SATr037/36.6SAN ANTONIO VORTAC116.8008E
RNDr021/37.4RANDOLPH VORTAC112.3005E
STVr093/39.2STONEWALL VORTAC113.8008E

 
NDB name  Hdg/Dist  Freq  Var  ID
GARYS346/7.227207ERU .-. ..-

Airport Services

Airframe service: NONE
Powerplant service: NONE

Runway Information

Runway N/S

Dimensions: 3800 x 50 ft. / 1158 x 15 m
Surface: asphalt
RUNWAY N  RUNWAY S
Traffic pattern: leftleft

Airport Ownership and Management from official FAA records

Ownership: Privately-owned
Manager: EUGENE HEIDEMAN
2550 TWO SHELL PLAZA
HOUSTON, TX 77002
Phone 713-224-8866

Airport Operational Statistics

Aircraft based on the field: 3
Single engine airplanes: 1
Multi engine airplanes: 2
    

Additional Remarks

FOR CD CTC AUSTIN APCH AT 512-269-7865.

Instrument Procedures

There are no published instrument procedures at 85TX.

Some nearby airports with instrument procedures:

KHYI - San Marcos Regional Airport (12 nm SE)
3R9 - Lakeway Airpark (17 nm N)
KAUS - Austin-Bergstrom International Airport (17 nm NE)
50R - Lockhart Municipal Airport (20 nm SE)
KBAZ - New Braunfels Regional Airport (23 nm S)
 
Loc | Ops | Rwys | IFR | FBO | Links
Com | Nav | Svcs | Stats | Notes
Area around 85TX (Rutherford Ranch Airport)
 
Road maps at: MapQuest Bing Google
 
Aerial photo
No photo
 
Sectional chart

 
Airport distance calculator
Flying to Rutherford Ranch Airport? Find the distance to fly.

From to 85TX

Sunrise and sunset
Times for 22-Oct-2020
 Local
(UTC-5)
 Zulu
(UTC)
Morning civil twilight07:1612:16
Sunrise07:4012:40
Sunset18:5223:52
Evening civil twilight19:1700:17

Current date and time
Zulu (UTC)  23-Oct-2020 02:21:20
Local (UTC-5)  22-Oct-2020 21:21:20
 
METAR
KHYI 
13nm SE 
230156Z AUTO 15009KT 10SM CLR 26/21 A2991 RMK AO2 SLP120 T02560211
KAUS 
18nm NE 
230153Z 16007KT 10SM CLR 27/21 A2990 RMK AO2 SLP115 T02670211
KATT 
19nm NE 
230151Z AUTO 14006KT 10SM CLR 27/19 A2991 RMK AO2 SLP117 T02720194
KBAZ 
22nm S 
230151Z AUTO 15012KT 10SM CLR 27/21 A2989 RMK AO2 SLP113 T02720206
KRYW 
25nm N 
230155Z AUTO 14005KT 10SM CLR 25/19 A2993 RMK AO2 T02520192
TAF
KAUS 
18nm NE 
222208Z 2222/2324 16011KT P6SM SCT060 FM230600 18007KT P6SM OVC012 FM231700 35006KT P6SM BKN028 FM232000 35015KT P6SM BKN028
NOTAMs
Click for the latest NOTAMs
NOTAMs are issued by the DoD/FAA and will open in a separate window not controlled by AirNav.

 

 
 

Would you like to see your business listed on this page?

 If your business provides an interesting product or service to pilots, flight crews, aircraft, or users of the Rutherford Ranch Airport, you should consider listing it here.  To start the listing process, click on the button below
 
Add a business
 

Other Pages about Rutherford Ranch Airport

Update a link
 
Copyright © AirNav, LLC. All rights reserved. Privacy Policy  Contact